createdAt,value
2022-08-07T00:00:15.089Z,25.04
2022-08-07T00:02:45.650Z,25.01
2022-08-07T00:05:12.908Z,24.96
2022-08-07T00:07:41.176Z,24.91
2022-08-07T00:10:26.108Z,24.85
2022-08-07T00:12:57.935Z,24.79
2022-08-07T00:15:38.028Z,24.75
2022-08-07T00:18:18.895Z,24.71
2022-08-07T00:20:47.766Z,24.69
2022-08-07T00:23:15.160Z,24.64
2022-08-07T00:25:45.950Z,24.61
2022-08-07T00:28:26.013Z,24.56
2022-08-07T00:31:05.897Z,24.52
2022-08-07T00:33:34.976Z,24.48
2022-08-07T00:36:02.673Z,24.44
2022-08-07T00:38:31.064Z,24.41
2022-08-07T00:41:00.490Z,24.40
2022-08-07T00:44:01.274Z,24.37
2022-08-07T00:46:14.564Z,24.34
2022-08-07T00:48:42.349Z,24.33
2022-08-07T00:51:10.573Z,24.33
2022-08-07T00:53:39.367Z,24.31
2022-08-07T00:56:18.800Z,24.29
2022-08-07T00:58:47.459Z,24.26
2022-08-07T01:01:18.762Z,24.26
2022-08-07T01:03:56.411Z,24.24
2022-08-07T01:06:31.757Z,24.23
2022-08-07T01:09:01.008Z,24.22
2022-08-07T01:12:23.439Z,24.19
2022-08-07T01:14:21.475Z,24.18
2022-08-07T01:16:56.229Z,24.16
2022-08-07T01:19:25.605Z,24.16
2022-08-07T01:21:55.128Z,24.14
2022-08-07T01:24:23.008Z,24.12
2022-08-07T01:26:52.617Z,24.11
2022-08-07T01:29:27.932Z,24.10
2022-08-07T01:31:55.646Z,24.09
2022-08-07T01:34:30.820Z,24.09
2022-08-07T01:36:59.184Z,24.08
2022-08-07T01:39:40.687Z,24.07
2022-08-07T01:42:37.910Z,24.07
2022-08-07T01:45:04.505Z,24.04
2022-08-07T01:48:17.909Z,24.01
2022-08-07T01:50:28.507Z,23.99
2022-08-07T01:52:58.443Z,23.98
2022-08-07T01:55:55.643Z,23.97
2022-08-07T01:58:29.654Z,23.96
2022-08-07T02:01:10.147Z,23.96
2022-08-07T02:03:58.504Z,23.94
2022-08-07T02:06:31.918Z,23.94
2022-08-07T02:09:03.801Z,23.93
2022-08-07T02:12:03.527Z,23.91
2022-08-07T02:14:40.542Z,23.89
2022-08-07T02:17:11.225Z,23.88
2022-08-07T02:20:07.444Z,23.86
2022-08-07T02:22:31.785Z,23.85
2022-08-07T02:24:59.771Z,23.84
2022-08-07T02:27:34.809Z,23.84
2022-08-07T02:30:04.038Z,23.82
2022-08-07T02:32:42.643Z,23.81
2022-08-07T02:36:29.456Z,23.80
2022-08-07T02:38:17.626Z,23.78
2022-08-07T02:40:55.520Z,23.77
2022-08-07T02:43:23.345Z,23.77
2022-08-07T02:45:58.193Z,23.76
2022-08-07T02:48:26.501Z,23.74
2022-08-07T02:50:56.461Z,23.72
2022-08-07T02:53:31.387Z,23.68
2022-08-07T02:56:17.338Z,23.66
2022-08-07T02:58:47.209Z,23.65
2022-08-07T03:01:18.587Z,23.65
2022-08-07T03:03:49.965Z,23.64
2022-08-07T03:06:26.072Z,23.63
2022-08-07T03:09:11.285Z,23.62
2022-08-07T03:11:52.705Z,23.60
2022-08-07T03:14:27.725Z,23.56
2022-08-07T03:16:56.713Z,23.54
2022-08-07T03:19:24.879Z,23.53
2022-08-07T03:21:57.007Z,23.52
2022-08-07T03:24:27.729Z,23.51
2022-08-07T03:27:00.360Z,23.50
2022-08-07T03:29:37.784Z,23.51
2022-08-07T03:32:13.149Z,23.50
2022-08-07T03:34:47.413Z,23.50
2022-08-07T03:37:32.798Z,23.48
2022-08-07T03:40:15.829Z,23.47
2022-08-07T03:42:43.895Z,23.45
2022-08-07T03:45:12.213Z,23.44
2022-08-07T03:47:58.476Z,23.43
2022-08-07T03:50:28.539Z,23.40
2022-08-07T03:52:59.531Z,23.38
2022-08-07T03:55:52.933Z,23.34
2022-08-07T03:59:05.349Z,23.31
2022-08-07T04:01:07.489Z,23.29
2022-08-07T04:03:49.855Z,23.31
2022-08-07T04:06:37.082Z,23.33
2022-08-07T04:09:08.428Z,23.32
2022-08-07T04:12:23.804Z,23.32
2022-08-07T04:14:38.441Z,23.33
2022-08-07T04:17:19.890Z,23.35
2022-08-07T04:19:58.772Z,23.37
2022-08-07T04:22:28.905Z,23.41
2022-08-07T04:24:58.676Z,23.44
2022-08-07T04:27:28.364Z,23.47
2022-08-07T04:30:03.266Z,23.48
2022-08-07T04:32:35.193Z,23.49
2022-08-07T04:35:05.604Z,23.50
2022-08-07T04:37:52.792Z,23.51
2022-08-07T04:40:22.810Z,23.52
2022-08-07T04:43:01.577Z,23.52
2022-08-07T04:46:01.113Z,23.53
2022-08-07T04:49:14.880Z,23.54
2022-08-07T04:51:58.822Z,23.53
2022-08-07T04:55:15.229Z,23.55
2022-08-07T04:58:24.121Z,23.52
2022-08-07T05:00:56.090Z,23.47
2022-08-07T05:03:59.843Z,23.40
2022-08-07T05:06:57.733Z,23.31
2022-08-07T05:10:11.083Z,23.20
2022-08-07T05:12:52.800Z,23.11
2022-08-07T05:15:36.122Z,23.07
2022-08-07T05:18:10.408Z,23.08
2022-08-07T05:20:43.856Z,23.11
2022-08-07T05:23:16.691Z,23.14
2022-08-07T05:26:11.551Z,23.19
2022-08-07T05:28:35.014Z,23.25
2022-08-07T05:31:03.916Z,23.30
2022-08-07T05:33:35.441Z,23.34
2022-08-07T05:36:07.318Z,23.40
2022-08-07T05:38:58.189Z,23.45
2022-08-07T05:42:00.489Z,23.50
2022-08-07T05:44:17.930Z,23.54
2022-08-07T05:46:57.967Z,23.58
2022-08-07T05:49:27.411Z,23.62
2022-08-07T05:52:11.411Z,23.65
2022-08-07T05:54:53.890Z,23.67
2022-08-07T05:57:26.793Z,23.70
2022-08-07T05:59:59.413Z,23.72
2022-08-07T06:02:30.717Z,23.74
2022-08-07T06:05:10.746Z,23.74
2022-08-07T06:08:13.237Z,23.76
2022-08-07T06:10:26.608Z,23.79
2022-08-07T06:12:53.947Z,23.82
2022-08-07T06:15:22.758Z,23.85
2022-08-07T06:18:14.356Z,23.89
2022-08-07T06:20:49.671Z,23.91
2022-08-07T06:24:37.300Z,23.94
2022-08-07T06:26:17.527Z,23.96
2022-08-07T06:28:57.609Z,23.98
2022-08-07T06:31:47.251Z,24.02
2022-08-07T06:34:14.046Z,24.04
2022-08-07T06:36:41.980Z,24.05
2022-08-07T06:40:16.390Z,24.08
2022-08-07T06:42:03.676Z,24.12
2022-08-07T06:44:34.103Z,24.13
2022-08-07T06:47:10.325Z,24.15
2022-08-07T06:49:51.229Z,24.18
2022-08-07T06:52:37.414Z,24.23
2022-08-07T06:55:31.349Z,24.26
2022-08-07T06:58:04.331Z,24.30
2022-08-07T07:00:42.310Z,24.34
2022-08-07T07:03:13.779Z,24.38
2022-08-07T07:06:02.840Z,24.41
2022-08-07T07:08:33.521Z,24.43
2022-08-07T07:11:13.143Z,24.45
2022-08-07T07:13:57.808Z,24.45
2022-08-07T07:16:45.195Z,24.45
2022-08-07T07:19:57.375Z,24.46
2022-08-07T07:22:34.184Z,24.45
2022-08-07T07:25:13.854Z,24.46
2022-08-07T07:28:03.387Z,24.47
2022-08-07T07:30:40.155Z,24.48
2022-08-07T07:33:11.370Z,24.51
2022-08-07T07:35:44.044Z,24.53
2022-08-07T07:38:32.626Z,24.56
2022-08-07T07:41:08.862Z,24.58
2022-08-07T07:44:14.805Z,24.60
2022-08-07T07:46:54.235Z,24.63
2022-08-07T07:50:29.663Z,24.65
2022-08-07T07:52:13.763Z,24.69
2022-08-07T07:54:50.441Z,24.72
2022-08-07T07:57:43.555Z,24.73
2022-08-07T08:00:09.923Z,24.76
2022-08-07T08:03:01.230Z,24.78
2022-08-07T08:05:42.624Z,24.82
2022-08-07T08:08:33.775Z,24.86
2022-08-07T08:11:08.988Z,24.92
2022-08-07T08:13:54.006Z,24.98
2022-08-07T08:16:26.645Z,25.04
2022-08-07T08:18:58.412Z,25.14
2022-08-07T08:21:55.743Z,25.22
2022-08-07T08:25:04.866Z,25.32
2022-08-07T08:27:55.959Z,25.41
2022-08-07T08:30:28.241Z,25.47
2022-08-07T08:32:59.486Z,25.52
2022-08-07T08:35:28.567Z,25.56
2022-08-07T08:38:03.578Z,25.61
2022-08-07T08:40:41.008Z,25.65
2022-08-07T08:43:42.074Z,25.71
2022-08-07T08:46:32.406Z,25.74
2022-08-07T08:49:13.314Z,25.75
2022-08-07T08:52:21.963Z,25.76
2022-08-07T08:55:20.986Z,25.77
2022-08-07T08:58:02.213Z,25.81
2022-08-07T09:00:36.815Z,25.88
2022-08-07T09:03:21.905Z,25.94
2022-08-07T09:06:18.290Z,26.02
2022-08-07T09:09:09.601Z,26.08
2022-08-07T09:12:30.215Z,26.13
2022-08-07T09:16:22.203Z,26.17
2022-08-07T09:18:39.383Z,26.21
2022-08-07T09:21:34.395Z,26.26
2022-08-07T09:24:59.451Z,26.28
2022-08-07T09:28:00.148Z,26.29
2022-08-07T09:31:00.376Z,26.32
2022-08-07T09:34:08.102Z,26.32
2022-08-07T09:36:42.947Z,26.34
2022-08-07T09:39:53.070Z,26.37
2022-08-07T09:42:22.975Z,26.40
2022-08-07T09:47:23.903Z,26.42
2022-08-07T09:50:04.070Z,26.47
2022-08-07T09:52:33.634Z,26.52
2022-08-07T09:55:28.790Z,26.63
2022-08-07T09:58:32.151Z,26.74
2022-08-07T10:01:51.881Z,26.83
2022-08-07T10:05:12.550Z,26.93
2022-08-07T10:07:59.630Z,27.05
2022-08-07T10:11:59.437Z,27.15
2022-08-07T10:14:00.664Z,27.14
2022-08-07T10:16:35.385Z,27.15
2022-08-07T10:19:30.165Z,27.18
2022-08-07T10:22:24.843Z,27.21
2022-08-07T10:25:24.304Z,27.24
2022-08-07T10:28:49.958Z,27.26
2022-08-07T10:31:54.722Z,27.29
2022-08-07T10:35:16.489Z,27.29
2022-08-07T10:38:47.884Z,27.31
2022-08-07T10:41:57.742Z,27.32
2022-08-07T10:44:50.203Z,27.32
2022-08-07T10:47:27.183Z,27.34
2022-08-07T10:50:34.861Z,27.36
2022-08-07T10:53:11.568Z,27.36
2022-08-07T10:55:47.803Z,27.37
2022-08-07T10:58:36.755Z,27.37
2022-08-07T11:01:35.477Z,27.38
2022-08-07T11:04:41.125Z,27.38
2022-08-07T11:07:56.901Z,27.38
2022-08-07T11:10:16.412Z,27.38
2022-08-07T11:14:42.273Z,27.38
2022-08-07T11:16:30.523Z,27.37
2022-08-07T11:19:10.121Z,27.36
2022-08-07T11:21:42.850Z,27.35
2022-08-07T11:24:39.716Z,27.34
2022-08-07T11:28:00.945Z,27.33
2022-08-07T11:30:29.087Z,27.33
2022-08-07T11:33:15.027Z,27.33
2022-08-07T11:36:10.140Z,27.33
2022-08-07T11:38:54.073Z,27.32
2022-08-07T11:42:01.747Z,27.33
2022-08-07T11:44:52.515Z,27.35
2022-08-07T11:47:39.216Z,27.34
2022-08-07T11:50:35.307Z,27.36
2022-08-07T11:53:16.458Z,27.38
2022-08-07T11:56:25.604Z,27.40
2022-08-07T11:58:54.459Z,27.41
2022-08-07T12:02:00.035Z,27.42
2022-08-07T12:04:54.500Z,27.43
2022-08-07T12:07:39.010Z,27.46
2022-08-07T12:10:23.751Z,27.48
2022-08-07T12:13:03.204Z,27.49
2022-08-07T12:16:05.328Z,27.50
2022-08-07T12:18:38.330Z,27.50
2022-08-07T12:21:21.031Z,27.52
2022-08-07T12:24:37.258Z,27.53
2022-08-07T12:27:17.221Z,27.56
2022-08-07T12:29:52.566Z,27.65
2022-08-07T12:32:51.203Z,27.79
2022-08-07T12:35:19.937Z,27.93
2022-08-07T12:38:10.732Z,28.07
2022-08-07T12:40:47.195Z,28.26
2022-08-07T12:44:04.552Z,28.41
2022-08-07T12:46:26.488Z,28.57
2022-08-07T12:49:39.927Z,28.70
2022-08-07T12:52:12.379Z,28.83
2022-08-07T12:54:59.020Z,28.94
2022-08-07T12:57:39.088Z,29.05
2022-08-07T13:00:34.588Z,29.18
2022-08-07T13:03:56.321Z,29.28
2022-08-07T13:06:22.029Z,29.39
2022-08-07T13:10:19.561Z,29.46
2022-08-07T13:12:15.209Z,29.43
2022-08-07T13:15:14.472Z,29.46
2022-08-07T13:17:59.439Z,29.53
2022-08-07T13:20:41.100Z,29.60
2022-08-07T13:24:00.738Z,29.67
2022-08-07T13:26:18.276Z,29.75
2022-08-07T13:28:59.059Z,29.81
2022-08-07T13:31:55.242Z,29.84
2022-08-07T13:34:35.842Z,29.88
2022-08-07T13:37:32.326Z,29.87
2022-08-07T13:40:34.945Z,29.89
2022-08-07T13:43:13.399Z,29.86
2022-08-07T13:46:20.837Z,29.84
2022-08-07T13:48:38.682Z,29.88
2022-08-07T13:51:27.569Z,29.94
2022-08-07T13:54:03.763Z,30.02
2022-08-07T13:56:36.084Z,30.08
2022-08-07T13:59:13.226Z,30.16
2022-08-07T14:02:03.606Z,30.21
2022-08-07T14:04:35.804Z,30.26
2022-08-07T14:07:09.672Z,30.31
2022-08-07T14:10:00.864Z,30.34
2022-08-07T14:12:54.547Z,30.33
2022-08-07T14:15:35.986Z,30.25
2022-08-07T14:18:23.841Z,30.23
2022-08-07T14:21:21.034Z,30.25
2022-08-07T14:24:08.580Z,30.27
2022-08-07T14:26:50.989Z,30.32
2022-08-07T14:30:07.596Z,30.34
2022-08-07T14:32:15.259Z,30.31
2022-08-07T14:34:47.498Z,30.29
2022-08-07T14:37:32.937Z,30.27
2022-08-07T14:40:18.193Z,30.27
2022-08-07T14:46:06.212Z,30.17
2022-08-07T14:48:35.325Z,30.13
2022-08-07T14:56:51.659Z,30.06
2022-08-07T15:02:31.739Z,30.08
2022-08-07T15:05:20.519Z,30.11
2022-08-07T15:07:53.453Z,30.08
2022-08-07T15:10:25.957Z,30.05
2022-08-07T15:12:58.342Z,30.03
2022-08-07T15:15:38.562Z,30.01
2022-08-07T15:18:14.444Z,30.02
2022-08-07T15:25:02.393Z,30.09
2022-08-07T15:26:55.719Z,30.14
2022-08-07T15:30:04.795Z,30.18
2022-08-07T15:32:14.097Z,30.20
2022-08-07T15:34:50.235Z,30.21
2022-08-07T15:40:33.922Z,30.24
2022-08-07T15:46:31.805Z,30.19
2022-08-07T15:49:14.424Z,30.18
2022-08-07T15:54:34.250Z,30.17
2022-08-07T15:57:04.761Z,30.11
2022-08-07T15:59:39.982Z,30.09
2022-08-07T16:02:23.957Z,30.09
2022-08-07T16:04:57.989Z,30.11
2022-08-07T16:08:28.270Z,30.12
2022-08-07T16:10:25.382Z,30.15
2022-08-07T16:13:17.507Z,30.14
2022-08-07T16:16:47.769Z,30.12
2022-08-07T16:18:56.697Z,30.10
2022-08-07T16:21:57.009Z,30.10
2022-08-07T16:24:52.513Z,30.03
2022-08-07T16:27:20.927Z,30.02
2022-08-07T16:30:10.784Z,29.96
2022-08-07T16:32:58.536Z,29.93
2022-08-07T16:35:58.450Z,29.92
2022-08-07T16:39:00.858Z,29.86
2022-08-07T16:41:41.619Z,29.77
2022-08-07T16:45:14.319Z,29.69
2022-08-07T16:48:07.105Z,29.63
2022-08-07T16:51:20.523Z,29.58
2022-08-07T16:54:06.348Z,29.54
2022-08-07T16:56:54.051Z,29.53
2022-08-07T16:59:49.690Z,29.49
2022-08-07T17:02:53.372Z,29.44
2022-08-07T17:06:19.413Z,29.34
2022-08-07T17:09:10.325Z,29.25
2022-08-07T17:12:04.214Z,29.15
2022-08-07T17:15:09.239Z,29.12
2022-08-07T17:18:16.046Z,29.08
2022-08-07T17:20:46.443Z,29.06
2022-08-07T17:23:22.805Z,29.04
2022-08-07T17:26:02.223Z,29.02
2022-08-07T17:28:49.923Z,28.97
2022-08-07T17:32:02.920Z,28.93
2022-08-07T17:35:40.675Z,28.89
2022-08-07T17:38:05.419Z,28.86
2022-08-07T17:40:35.951Z,28.83
2022-08-07T17:43:14.938Z,28.80
2022-08-07T17:45:57.270Z,28.80
2022-08-07T17:48:31.132Z,28.80
2022-08-07T17:51:07.429Z,28.81
2022-08-07T17:54:02.236Z,28.80
2022-08-07T17:56:36.209Z,28.78
2022-08-07T17:59:41.475Z,28.78
2022-08-07T18:02:17.538Z,28.75
2022-08-07T18:05:22.024Z,28.73
2022-08-07T18:08:00.547Z,28.69
2022-08-07T18:12:06.990Z,28.64
2022-08-07T18:13:48.993Z,28.61
2022-08-07T18:16:35.736Z,28.59
2022-08-07T18:21:07.960Z,28.59
2022-08-07T18:22:40.300Z,28.56
2022-08-07T18:25:24.070Z,28.54
2022-08-07T18:28:34.499Z,28.51
2022-08-07T18:31:24.471Z,28.50
2022-08-07T18:34:33.815Z,28.47
2022-08-07T18:38:56.458Z,28.45
2022-08-07T18:40:53.622Z,28.44
2022-08-07T18:43:48.874Z,28.42
2022-08-07T18:46:54.896Z,28.40
2022-08-07T18:50:30.075Z,28.38
2022-08-07T18:53:04.591Z,28.36
2022-08-07T18:56:04.173Z,28.33
2022-08-07T18:59:00.901Z,28.30
2022-08-07T19:02:27.320Z,28.27
2022-08-07T19:05:10.791Z,28.22
2022-08-07T19:07:58.847Z,28.17
2022-08-07T19:10:31.938Z,28.15
2022-08-07T19:13:43.837Z,28.12
2022-08-07T19:16:43.129Z,28.11
2022-08-07T19:19:47.002Z,28.08
2022-08-07T19:22:44.995Z,28.05
2022-08-07T19:26:23.038Z,28.02
2022-08-07T19:28:56.385Z,28.01
2022-08-07T19:31:41.454Z,27.97
2022-08-07T19:34:03.073Z,27.94
2022-08-07T19:36:35.479Z,27.90
2022-08-07T19:39:09.082Z,27.88
2022-08-07T19:42:07.900Z,27.85
2022-08-07T19:44:44.147Z,27.83
2022-08-07T19:47:16.314Z,27.81
2022-08-07T19:49:57.074Z,27.79
2022-08-07T19:52:28.129Z,27.74
2022-08-07T19:54:57.474Z,27.70
2022-08-07T19:58:02.713Z,27.67
2022-08-07T20:00:34.648Z,27.61
2022-08-07T20:03:32.739Z,27.59
2022-08-07T20:06:02.223Z,27.57
2022-08-07T20:08:34.796Z,27.56
2022-08-07T20:11:10.086Z,27.54
2022-08-07T20:13:55.260Z,27.51
2022-08-07T20:16:34.967Z,27.50
2022-08-07T20:19:10.251Z,27.47
2022-08-07T20:21:47.141Z,27.43
2022-08-07T20:24:23.191Z,27.40
2022-08-07T20:26:54.587Z,27.38
2022-08-07T20:29:47.873Z,27.36
2022-08-07T20:32:40.191Z,27.33
2022-08-07T20:35:26.131Z,27.33
2022-08-07T20:37:58.699Z,27.32
2022-08-07T20:40:34.685Z,27.33
2022-08-07T20:43:09.410Z,27.33
2022-08-07T20:46:25.833Z,27.33
2022-08-07T20:48:34.016Z,27.34
2022-08-07T20:51:09.666Z,27.35
2022-08-07T20:54:03.403Z,27.34
2022-08-07T20:56:32.343Z,27.29
2022-08-07T20:59:05.132Z,27.22
2022-08-07T21:01:45.936Z,27.13
2022-08-07T21:04:27.029Z,27.01
2022-08-07T21:07:04.048Z,26.92
2022-08-07T21:09:51.716Z,26.85
2022-08-07T21:12:31.202Z,26.78
2022-08-07T21:15:03.994Z,26.73
2022-08-07T21:18:03.076Z,26.69
2022-08-07T21:20:29.647Z,26.67
2022-08-07T21:23:08.096Z,26.63
2022-08-07T21:25:38.599Z,26.60
2022-08-07T21:28:11.186Z,26.57
2022-08-07T21:31:02.452Z,26.55
2022-08-07T21:33:48.473Z,26.53
2022-08-07T21:36:31.089Z,26.47
2022-08-07T21:39:45.251Z,26.43
2022-08-07T21:42:46.232Z,26.37
2022-08-07T21:46:08.451Z,26.31
2022-08-07T21:48:32.190Z,26.25
2022-08-07T21:51:32.329Z,26.20
2022-08-07T21:54:46.045Z,26.15
2022-08-07T21:57:44.926Z,26.07
2022-08-07T22:00:25.299Z,26.04
2022-08-07T22:03:18.851Z,26.03
2022-08-07T22:06:30.060Z,26.03
2022-08-07T22:09:07.018Z,26.04
2022-08-07T22:12:05.896Z,26.06
2022-08-07T22:14:36.304Z,26.06
2022-08-07T22:17:05.086Z,26.07
2022-08-07T22:19:44.780Z,26.08
2022-08-07T22:22:27.439Z,26.09
2022-08-07T22:24:55.431Z,26.09
2022-08-07T22:28:03.131Z,26.11
2022-08-07T22:30:32.290Z,26.11
2022-08-07T22:33:04.543Z,26.11
2022-08-07T22:35:52.044Z,26.12
2022-08-07T22:38:31.899Z,26.12
2022-08-07T22:41:03.295Z,26.14
2022-08-07T22:43:34.254Z,26.15
2022-08-07T22:46:43.005Z,26.16
2022-08-07T22:49:54.197Z,26.15
2022-08-07T22:52:39.611Z,26.13
2022-08-07T22:55:30.009Z,26.14
2022-08-07T22:58:31.484Z,26.13
2022-08-07T23:01:25.337Z,26.11
2022-08-07T23:04:04.946Z,26.11
2022-08-07T23:06:41.612Z,26.11
2022-08-07T23:10:06.383Z,26.10
2022-08-07T23:12:58.717Z,26.07
2022-08-07T23:16:05.696Z,26.06
2022-08-07T23:18:42.442Z,26.04
2022-08-07T23:21:36.736Z,26.02
2022-08-07T23:24:11.368Z,26.01
2022-08-07T23:26:59.200Z,25.99
2022-08-07T23:30:37.138Z,25.97
2022-08-07T23:34:34.244Z,25.94
2022-08-07T23:36:03.596Z,25.92
2022-08-07T23:38:54.935Z,25.91
2022-08-07T23:42:30.464Z,25.89
2022-08-07T23:45:33.466Z,25.85
2022-08-07T23:48:31.596Z,25.82
2022-08-07T23:53:01.140Z,25.81
2022-08-07T23:54:57.044Z,25.78
2022-08-07T23:57:32.348Z,25.75
